sensor_id;sensor_type;location;lat;lon;timestamp;P1;durP1;ratioP1;P2;durP2;ratioP2
49910;SDS011;35803;53.096;5.844;2022-07-12T00:01:04;6.75;;;3.53;;
49910;SDS011;35803;53.096;5.844;2022-07-12T00:03:30;5.10;;;3.22;;
49910;SDS011;35803;53.096;5.844;2022-07-12T00:05:56;5.25;;;3.63;;
49910;SDS011;35803;53.096;5.844;2022-07-12T00:08:22;4.72;;;3.38;;
49910;SDS011;35803;53.096;5.844;2022-07-12T00:10:48;5.43;;;3.55;;
49910;SDS011;35803;53.096;5.844;2022-07-12T00:13:13;6.97;;;3.90;;
49910;SDS011;35803;53.096;5.844;2022-07-12T00:15:40;6.68;;;4.07;;
49910;SDS011;35803;53.096;5.844;2022-07-12T00:18:08;6.20;;;3.88;;
49910;SDS011;35803;53.096;5.844;2022-07-12T00:20:35;5.63;;;4.13;;
49910;SDS011;35803;53.096;5.844;2022-07-12T00:23:01;6.28;;;3.92;;
49910;SDS011;35803;53.096;5.844;2022-07-12T00:25:26;5.55;;;3.72;;
49910;SDS011;35803;53.096;5.844;2022-07-12T00:27:52;6.40;;;4.35;;
49910;SDS011;35803;53.096;5.844;2022-07-12T00:30:18;6.95;;;4.10;;
49910;SDS011;35803;53.096;5.844;2022-07-12T00:32:43;10.18;;;4.70;;
49910;SDS011;35803;53.096;5.844;2022-07-12T00:35:09;7.80;;;4.13;;
49910;SDS011;35803;53.096;5.844;2022-07-12T00:37:36;11.60;;;4.38;;
49910;SDS011;35803;53.096;5.844;2022-07-12T00:40:04;16.45;;;4.00;;
49910;SDS011;35803;53.096;5.844;2022-07-12T00:42:31;13.38;;;4.40;;
49910;SDS011;35803;53.096;5.844;2022-07-12T00:44:58;9.00;;;3.97;;
49910;SDS011;35803;53.096;5.844;2022-07-12T00:47:34;6.28;;;4.03;;
49910;SDS011;35803;53.096;5.844;2022-07-12T00:52:38;7.85;;;3.88;;
49910;SDS011;35803;53.096;5.844;2022-07-12T00:55:04;6.82;;;4.07;;
49910;SDS011;35803;53.096;5.844;2022-07-12T00:57:31;5.40;;;3.88;;
49910;SDS011;35803;53.096;5.844;2022-07-12T00:59:57;6.22;;;3.90;;
49910;SDS011;35803;53.096;5.844;2022-07-12T01:02:23;6.72;;;3.92;;
49910;SDS011;35803;53.096;5.844;2022-07-12T01:04:50;9.02;;;3.63;;
49910;SDS011;35803;53.096;5.844;2022-07-12T01:07:15;8.18;;;4.15;;
49910;SDS011;35803;53.096;5.844;2022-07-12T01:09:41;10.02;;;4.03;;
49910;SDS011;35803;53.096;5.844;2022-07-12T01:12:09;8.68;;;4.32;;
49910;SDS011;35803;53.096;5.844;2022-07-12T01:14:36;8.82;;;3.90;;
49910;SDS011;35803;53.096;5.844;2022-07-12T01:17:02;11.65;;;4.28;;
49910;SDS011;35803;53.096;5.844;2022-07-12T01:19:31;11.02;;;4.22;;
49910;SDS011;35803;53.096;5.844;2022-07-12T01:21:57;17.25;;;3.67;;
49910;SDS011;35803;53.096;5.844;2022-07-12T01:24:24;9.32;;;3.28;;
49910;SDS011;35803;53.096;5.844;2022-07-12T01:26:50;8.07;;;3.42;;
49910;SDS011;35803;53.096;5.844;2022-07-12T01:29:16;5.00;;;2.80;;
49910;SDS011;35803;53.096;5.844;2022-07-12T01:31:42;24.85;;;3.33;;
49910;SDS011;35803;53.096;5.844;2022-07-12T01:34:07;27.48;;;3.38;;
49910;SDS011;35803;53.096;5.844;2022-07-12T01:36:33;10.65;;;3.17;;
49910;SDS011;35803;53.096;5.844;2022-07-12T01:38:59;9.55;;;3.22;;
49910;SDS011;35803;53.096;5.844;2022-07-12T01:41:25;5.93;;;3.15;;
49910;SDS011;35803;53.096;5.844;2022-07-12T01:43:51;4.47;;;2.88;;
49910;SDS011;35803;53.096;5.844;2022-07-12T01:46:20;6.07;;;2.63;;
49910;SDS011;35803;53.096;5.844;2022-07-12T01:48:46;4.72;;;2.30;;
49910;SDS011;35803;53.096;5.844;2022-07-12T01:51:11;6.95;;;2.67;;
49910;SDS011;35803;53.096;5.844;2022-07-12T01:53:37;9.18;;;2.80;;
49910;SDS011;35803;53.096;5.844;2022-07-12T01:56:03;6.82;;;2.50;;
49910;SDS011;35803;53.096;5.844;2022-07-12T01:58:29;6.97;;;2.67;;
49910;SDS011;35803;53.096;5.844;2022-07-12T02:00:56;3.35;;;2.22;;
49910;SDS011;35803;53.096;5.844;2022-07-12T02:03:22;5.30;;;2.13;;
49910;SDS011;35803;53.096;5.844;2022-07-12T02:05:47;4.75;;;2.38;;
49910;SDS011;35803;53.096;5.844;2022-07-12T02:08:16;4.30;;;1.77;;
49910;SDS011;35803;53.096;5.844;2022-07-12T02:10:42;6.18;;;2.35;;
49910;SDS011;35803;53.096;5.844;2022-07-12T02:13:08;9.90;;;2.22;;
49910;SDS011;35803;53.096;5.844;2022-07-12T02:15:34;11.57;;;2.05;;
49910;SDS011;35803;53.096;5.844;2022-07-12T02:17:59;10.30;;;2.03;;
49910;SDS011;35803;53.096;5.844;2022-07-12T02:20:25;7.50;;;2.15;;
49910;SDS011;35803;53.096;5.844;2022-07-12T02:22:50;6.95;;;2.20;;
49910;SDS011;35803;53.096;5.844;2022-07-12T02:25:16;4.20;;;2.08;;
49910;SDS011;35803;53.096;5.844;2022-07-12T02:27:41;2.92;;;1.67;;
49910;SDS011;35803;53.096;5.844;2022-07-12T02:30:08;4.75;;;2.20;;
49910;SDS011;35803;53.096;5.844;2022-07-12T02:32:34;5.07;;;2.00;;
49910;SDS011;35803;53.096;5.844;2022-07-12T02:35:00;9.32;;;1.60;;
49910;SDS011;35803;53.096;5.844;2022-07-12T02:37:26;5.05;;;1.70;;
49910;SDS011;35803;53.096;5.844;2022-07-12T02:39:55;6.55;;;1.95;;
49910;SDS011;35803;53.096;5.844;2022-07-12T02:42:40;4.32;;;1.60;;
49910;SDS011;35803;53.096;5.844;2022-07-12T02:45:06;1.88;;;1.60;;
49910;SDS011;35803;53.096;5.844;2022-07-12T02:47:31;4.18;;;1.67;;
49910;SDS011;35803;53.096;5.844;2022-07-12T02:49:58;5.28;;;1.77;;
49910;SDS011;35803;53.096;5.844;2022-07-12T02:52:23;4.10;;;1.48;;
49910;SDS011;35803;53.096;5.844;2022-07-12T02:54:49;3.38;;;1.50;;
49910;SDS011;35803;53.096;5.844;2022-07-12T02:57:15;3.42;;;1.50;;
49910;SDS011;35803;53.096;5.844;2022-07-12T02:59:41;5.45;;;1.70;;
49910;SDS011;35803;53.096;5.844;2022-07-12T03:02:06;4.70;;;1.80;;
49910;SDS011;35803;53.096;5.844;2022-07-12T03:04:32;1.95;;;1.42;;
49910;SDS011;35803;53.096;5.844;2022-07-12T03:06:57;3.10;;;1.40;;
49910;SDS011;35803;53.096;5.844;2022-07-12T03:09:26;2.72;;;1.80;;
49910;SDS011;35803;53.096;5.844;2022-07-12T03:11:51;1.48;;;1.30;;
49910;SDS011;35803;53.096;5.844;2022-07-12T03:14:17;1.35;;;1.17;;
49910;SDS011;35803;53.096;5.844;2022-07-12T03:16:43;1.58;;;1.40;;
49910;SDS011;35803;53.096;5.844;2022-07-12T03:19:09;1.48;;;1.35;;
49910;SDS011;35803;53.096;5.844;2022-07-12T03:21:34;2.08;;;1.60;;
49910;SDS011;35803;53.096;5.844;2022-07-12T03:24:00;4.60;;;1.48;;
49910;SDS011;35803;53.096;5.844;2022-07-12T03:26:25;1.35;;;1.25;;
49910;SDS011;35803;53.096;5.844;2022-07-12T03:28:51;3.15;;;1.30;;
49910;SDS011;35803;53.096;5.844;2022-07-12T03:31:17;4.18;;;1.40;;
49910;SDS011;35803;53.096;5.844;2022-07-12T03:33:42;1.85;;;1.50;;
49910;SDS011;35803;53.096;5.844;2022-07-12T03:36:08;6.70;;;1.60;;
49910;SDS011;35803;53.096;5.844;2022-07-12T03:38:33;2.75;;;1.67;;
49910;SDS011;35803;53.096;5.844;2022-07-12T03:41:04;2.38;;;1.83;;
49910;SDS011;35803;53.096;5.844;2022-07-12T03:43:30;4.40;;;1.90;;
49910;SDS011;35803;53.096;5.844;2022-07-12T03:45:56;2.15;;;1.67;;
49910;SDS011;35803;53.096;5.844;2022-07-12T03:48:21;2.30;;;1.73;;
49910;SDS011;35803;53.096;5.844;2022-07-12T03:50:47;3.00;;;1.65;;
49910;SDS011;35803;53.096;5.844;2022-07-12T03:53:13;2.10;;;1.65;;
49910;SDS011;35803;53.096;5.844;2022-07-12T03:55:39;1.98;;;1.77;;
49910;SDS011;35803;53.096;5.844;2022-07-12T03:58:05;2.80;;;2.20;;
49910;SDS011;35803;53.096;5.844;2022-07-12T04:00:30;2.20;;;1.85;;
49910;SDS011;35803;53.096;5.844;2022-07-12T04:02:56;5.03;;;1.70;;
49910;SDS011;35803;53.096;5.844;2022-07-12T04:05:21;5.28;;;1.88;;
49910;SDS011;35803;53.096;5.844;2022-07-12T04:07:50;4.38;;;2.10;;
49910;SDS011;35803;53.096;5.844;2022-07-12T04:10:16;5.22;;;1.95;;
49910;SDS011;35803;53.096;5.844;2022-07-12T04:12:42;5.32;;;2.03;;
49910;SDS011;35803;53.096;5.844;2022-07-12T04:15:08;2.70;;;1.92;;
49910;SDS011;35803;53.096;5.844;2022-07-12T04:17:37;3.28;;;2.05;;
49910;SDS011;35803;53.096;5.844;2022-07-12T04:20:03;2.40;;;1.77;;
49910;SDS011;35803;53.096;5.844;2022-07-12T04:22:31;2.67;;;2.08;;
49910;SDS011;35803;53.096;5.844;2022-07-12T04:24:57;3.03;;;2.20;;
49910;SDS011;35803;53.096;5.844;2022-07-12T04:27:22;4.00;;;2.20;;
49910;SDS011;35803;53.096;5.844;2022-07-12T04:29:48;2.22;;;1.92;;
49910;SDS011;35803;53.096;5.844;2022-07-12T04:32:13;2.63;;;2.00;;
49910;SDS011;35803;53.096;5.844;2022-07-12T04:34:39;4.63;;;2.00;;
49910;SDS011;35803;53.096;5.844;2022-07-12T04:37:05;2.55;;;2.25;;
49910;SDS011;35803;53.096;5.844;2022-07-12T04:39:30;3.67;;;2.47;;
49910;SDS011;35803;53.096;5.844;2022-07-12T04:41:56;3.17;;;2.20;;
49910;SDS011;35803;53.096;5.844;2022-07-12T04:44:21;2.63;;;2.22;;
49910;SDS011;35803;53.096;5.844;2022-07-12T04:46:47;2.15;;;1.88;;
49910;SDS011;35803;53.096;5.844;2022-07-12T04:49:12;3.05;;;2.22;;
49910;SDS011;35803;53.096;5.844;2022-07-12T04:51:38;2.70;;;2.28;;
49910;SDS011;35803;53.096;5.844;2022-07-12T04:54:04;2.70;;;1.98;;
49910;SDS011;35803;53.096;5.844;2022-07-12T04:56:29;4.35;;;2.63;;
49910;SDS011;35803;53.096;5.844;2022-07-12T04:58:55;2.58;;;2.10;;
49910;SDS011;35803;53.096;5.844;2022-07-12T05:01:23;2.97;;;2.28;;
49910;SDS011;35803;53.096;5.844;2022-07-12T05:03:50;3.15;;;2.30;;
49910;SDS011;35803;53.096;5.844;2022-07-12T05:06:16;4.18;;;2.58;;
49910;SDS011;35803;53.096;5.844;2022-07-12T05:08:41;3.90;;;2.70;;
49910;SDS011;35803;53.096;5.844;2022-07-12T05:11:07;4.13;;;2.30;;
49910;SDS011;35803;53.096;5.844;2022-07-12T05:13:32;4.30;;;2.58;;
49910;SDS011;35803;53.096;5.844;2022-07-12T05:15:58;3.22;;;2.47;;
49910;SDS011;35803;53.096;5.844;2022-07-12T05:18:24;3.13;;;2.60;;
49910;SDS011;35803;53.096;5.844;2022-07-12T05:20:49;2.95;;;2.40;;
49910;SDS011;35803;53.096;5.844;2022-07-12T05:23:15;3.10;;;2.65;;
49910;SDS011;35803;53.096;5.844;2022-07-12T05:25:41;4.50;;;2.60;;
49910;SDS011;35803;53.096;5.844;2022-07-12T05:28:07;4.43;;;2.83;;
49910;SDS011;35803;53.096;5.844;2022-07-12T05:30:32;4.05;;;2.95;;
49910;SDS011;35803;53.096;5.844;2022-07-12T05:32:58;4.40;;;3.03;;
49910;SDS011;35803;53.096;5.844;2022-07-12T05:35:23;5.78;;;2.83;;
49910;SDS011;35803;53.096;5.844;2022-07-12T05:37:49;3.88;;;2.90;;
49910;SDS011;35803;53.096;5.844;2022-07-12T05:40:14;3.60;;;2.72;;
49910;SDS011;35803;53.096;5.844;2022-07-12T05:42:40;4.38;;;3.28;;
49910;SDS011;35803;53.096;5.844;2022-07-12T05:45:06;5.32;;;3.53;;
49910;SDS011;35803;53.096;5.844;2022-07-12T05:47:32;5.32;;;3.78;;
49910;SDS011;35803;53.096;5.844;2022-07-12T05:49:57;5.90;;;3.42;;
49910;SDS011;35803;53.096;5.844;2022-07-12T05:52:23;4.25;;;3.20;;
49910;SDS011;35803;53.096;5.844;2022-07-12T05:55:07;5.80;;;3.80;;
49910;SDS011;35803;53.096;5.844;2022-07-12T05:57:33;5.30;;;3.50;;
49910;SDS011;35803;53.096;5.844;2022-07-12T05:59:58;6.93;;;4.03;;
49910;SDS011;35803;53.096;5.844;2022-07-12T06:02:24;5.95;;;3.67;;
49910;SDS011;35803;53.096;5.844;2022-07-12T06:04:50;4.28;;;3.25;;
49910;SDS011;35803;53.096;5.844;2022-07-12T06:07:15;4.20;;;3.03;;
49910;SDS011;35803;53.096;5.844;2022-07-12T06:09:41;3.80;;;3.10;;
49910;SDS011;35803;53.096;5.844;2022-07-12T06:12:07;4.47;;;3.40;;
49910;SDS011;35803;53.096;5.844;2022-07-12T06:14:35;5.85;;;3.28;;
49910;SDS011;35803;53.096;5.844;2022-07-12T06:17:01;4.18;;;3.00;;
49910;SDS011;35803;53.096;5.844;2022-07-12T06:19:27;4.03;;;3.38;;
49910;SDS011;35803;53.096;5.844;2022-07-12T06:21:54;3.58;;;2.80;;
49910;SDS011;35803;53.096;5.844;2022-07-12T06:24:19;3.50;;;2.90;;
49910;SDS011;35803;53.096;5.844;2022-07-12T06:26:45;3.47;;;2.60;;
49910;SDS011;35803;53.096;5.844;2022-07-12T06:29:10;3.90;;;3.00;;
49910;SDS011;35803;53.096;5.844;2022-07-12T06:31:39;3.55;;;2.90;;
49910;SDS011;35803;53.096;5.844;2022-07-12T06:34:04;2.75;;;2.55;;
49910;SDS011;35803;53.096;5.844;2022-07-12T06:36:30;3.40;;;2.50;;
49910;SDS011;35803;53.096;5.844;2022-07-12T06:38:55;3.55;;;2.80;;
49910;SDS011;35803;53.096;5.844;2022-07-12T06:41:21;2.95;;;2.65;;
49910;SDS011;35803;53.096;5.844;2022-07-12T06:43:46;3.72;;;3.25;;
49910;SDS011;35803;53.096;5.844;2022-07-12T06:46:12;4.38;;;3.13;;
49910;SDS011;35803;53.096;5.844;2022-07-12T06:48:37;3.33;;;2.60;;
49910;SDS011;35803;53.096;5.844;2022-07-12T06:51:06;5.32;;;2.95;;
49910;SDS011;35803;53.096;5.844;2022-07-12T06:53:31;2.92;;;2.63;;
49910;SDS011;35803;53.096;5.844;2022-07-12T06:55:57;4.35;;;3.20;;
49910;SDS011;35803;53.096;5.844;2022-07-12T06:58:22;3.53;;;2.85;;
49910;SDS011;35803;53.096;5.844;2022-07-12T07:00:48;3.50;;;3.10;;
49910;SDS011;35803;53.096;5.844;2022-07-12T07:03:14;4.10;;;3.35;;
49910;SDS011;35803;53.096;5.844;2022-07-12T07:05:40;3.63;;;3.17;;
49910;SDS011;35803;53.096;5.844;2022-07-12T07:08:05;3.50;;;3.17;;
49910;SDS011;35803;53.096;5.844;2022-07-12T07:10:31;3.13;;;2.75;;
49910;SDS011;35803;53.096;5.844;2022-07-12T07:12:57;3.47;;;2.95;;
49910;SDS011;35803;53.096;5.844;2022-07-12T07:15:22;3.53;;;2.97;;
49910;SDS011;35803;53.096;5.844;2022-07-12T07:17:47;3.67;;;3.30;;
49910;SDS011;35803;53.096;5.844;2022-07-12T07:20:13;2.97;;;2.58;;
49910;SDS011;35803;53.096;5.844;2022-07-12T07:22:39;3.20;;;2.90;;
49910;SDS011;35803;53.096;5.844;2022-07-12T07:25:05;3.30;;;2.90;;
49910;SDS011;35803;53.096;5.844;2022-07-12T07:27:31;3.05;;;2.75;;
49910;SDS011;35803;53.096;5.844;2022-07-12T07:29:57;3.35;;;2.88;;
49910;SDS011;35803;53.096;5.844;2022-07-12T07:32:41;4.72;;;3.47;;
49910;SDS011;35803;53.096;5.844;2022-07-12T07:35:07;3.42;;;2.78;;
49910;SDS011;35803;53.096;5.844;2022-07-12T07:37:33;3.00;;;2.70;;
49910;SDS011;35803;53.096;5.844;2022-07-12T07:39:59;4.10;;;2.85;;
49910;SDS011;35803;53.096;5.844;2022-07-12T07:42:25;2.85;;;2.55;;
49910;SDS011;35803;53.096;5.844;2022-07-12T07:44:50;3.17;;;2.88;;
49910;SDS011;35803;53.096;5.844;2022-07-12T07:47:16;3.05;;;2.75;;
49910;SDS011;35803;53.096;5.844;2022-07-12T07:49:41;2.97;;;2.67;;
49910;SDS011;35803;53.096;5.844;2022-07-12T07:52:07;5.28;;;2.88;;
49910;SDS011;35803;53.096;5.844;2022-07-12T07:58:25;3.78;;;2.92;;
49910;SDS011;35803;53.096;5.844;2022-07-12T08:03:23;7.35;;;3.00;;
49910;SDS011;35803;53.096;5.844;2022-07-12T08:05:49;3.38;;;3.00;;
49910;SDS011;35803;53.096;5.844;2022-07-12T08:08:16;3.40;;;3.10;;
49910;SDS011;35803;53.096;5.844;2022-07-12T08:10:43;3.58;;;3.17;;
49910;SDS011;35803;53.096;5.844;2022-07-12T08:13:09;3.42;;;3.13;;
49910;SDS011;35803;53.096;5.844;2022-07-12T08:15:35;3.45;;;3.15;;
49910;SDS011;35803;53.096;5.844;2022-07-12T08:18:01;4.15;;;2.90;;
49910;SDS011;35803;53.096;5.844;2022-07-12T08:20:26;4.40;;;3.20;;
49910;SDS011;35803;53.096;5.844;2022-07-12T08:22:52;3.45;;;3.15;;
49910;SDS011;35803;53.096;5.844;2022-07-12T08:25:17;5.28;;;3.20;;
49910;SDS011;35803;53.096;5.844;2022-07-12T08:27:43;3.08;;;2.75;;
49910;SDS011;35803;53.096;5.844;2022-07-12T08:30:09;3.30;;;2.80;;
49910;SDS011;35803;53.096;5.844;2022-07-12T08:33:54;3.65;;;3.30;;
49910;SDS011;35803;53.096;5.844;2022-07-12T08:36:20;4.07;;;3.05;;
49910;SDS011;35803;53.096;5.844;2022-07-12T08:38:45;3.33;;;2.85;;
49910;SDS011;35803;53.096;5.844;2022-07-12T08:41:11;3.92;;;3.08;;
49910;SDS011;35803;53.096;5.844;2022-07-12T08:43:39;4.57;;;2.85;;
49910;SDS011;35803;53.096;5.844;2022-07-12T08:46:05;3.20;;;2.90;;
49910;SDS011;35803;53.096;5.844;2022-07-12T08:48:33;2.78;;;2.33;;
49910;SDS011;35803;53.096;5.844;2022-07-12T08:51:02;2.58;;;2.38;;
49910;SDS011;35803;53.096;5.844;2022-07-12T08:53:31;3.05;;;2.75;;
49910;SDS011;35803;53.096;5.844;2022-07-12T08:55:57;2.38;;;2.17;;
49910;SDS011;35803;53.096;5.844;2022-07-12T08:58:23;2.55;;;2.35;;
49910;SDS011;35803;53.096;5.844;2022-07-12T09:00:49;4.32;;;2.83;;
49910;SDS011;35803;53.096;5.844;2022-07-12T09:03:18;2.40;;;2.20;;
49910;SDS011;35803;53.096;5.844;2022-07-12T09:05:53;3.30;;;2.87;;
49910;SDS011;35803;53.096;5.844;2022-07-12T09:08:29;3.75;;;2.63;;
49910;SDS011;35803;53.096;5.844;2022-07-12T09:10:57;4.88;;;2.65;;
49910;SDS011;35803;53.096;5.844;2022-07-12T09:16:16;3.10;;;2.50;;
49910;SDS011;35803;53.096;5.844;2022-07-12T09:18:43;2.35;;;2.15;;
49910;SDS011;35803;53.096;5.844;2022-07-12T09:21:10;2.40;;;2.20;;
49910;SDS011;35803;53.096;5.844;2022-07-12T09:24:04;2.80;;;2.30;;
49910;SDS011;35803;53.096;5.844;2022-07-12T09:26:31;2.47;;;2.28;;
49910;SDS011;35803;53.096;5.844;2022-07-12T09:29:10;2.70;;;2.40;;
49910;SDS011;35803;53.096;5.844;2022-07-12T09:31:43;3.25;;;2.92;;
49910;SDS011;35803;53.096;5.844;2022-07-12T09:34:29;5.35;;;2.88;;
49910;SDS011;35803;53.096;5.844;2022-07-12T09:37:14;2.58;;;2.05;;
49910;SDS011;35803;53.096;5.844;2022-07-12T09:39:40;3.97;;;3.00;;
49910;SDS011;35803;53.096;5.844;2022-07-12T09:42:07;2.97;;;2.67;;
49910;SDS011;35803;53.096;5.844;2022-07-12T09:44:35;2.97;;;2.60;;
49910;SDS011;35803;53.096;5.844;2022-07-12T09:47:01;2.92;;;2.55;;
49910;SDS011;35803;53.096;5.844;2022-07-12T09:49:27;4.10;;;2.75;;
49910;SDS011;35803;53.096;5.844;2022-07-12T09:51:54;3.05;;;2.75;;
49910;SDS011;35803;53.096;5.844;2022-07-12T09:54:23;2.58;;;2.38;;
49910;SDS011;35803;53.096;5.844;2022-07-12T09:56:51;2.95;;;2.50;;
49910;SDS011;35803;53.096;5.844;2022-07-12T09:59:18;4.55;;;2.90;;
49910;SDS011;35803;53.096;5.844;2022-07-12T10:01:45;2.90;;;2.53;;
49910;SDS011;35803;53.096;5.844;2022-07-12T10:04:11;2.70;;;2.42;;
49910;SDS011;35803;53.096;5.844;2022-07-12T10:06:38;4.07;;;2.58;;
49910;SDS011;35803;53.096;5.844;2022-07-12T10:09:05;2.80;;;2.15;;
49910;SDS011;35803;53.096;5.844;2022-07-12T10:11:31;2.40;;;2.20;;
49910;SDS011;35803;53.096;5.844;2022-07-12T10:13:57;2.20;;;2.10;;
49910;SDS011;35803;53.096;5.844;2022-07-12T10:16:25;2.70;;;2.50;;
49910;SDS011;35803;53.096;5.844;2022-07-12T10:21:47;3.38;;;2.30;;
49910;SDS011;35803;53.096;5.844;2022-07-12T10:27:26;2.47;;;2.13;;
49910;SDS011;35803;53.096;5.844;2022-07-12T10:29:44;2.30;;;1.90;;
49910;SDS011;35803;53.096;5.844;2022-07-12T10:35:06;2.28;;;1.95;;
49910;SDS011;35803;53.096;5.844;2022-07-12T10:37:40;4.10;;;2.67;;
49910;SDS011;35803;53.096;5.844;2022-07-12T10:40:18;2.05;;;1.85;;
49910;SDS011;35803;53.096;5.844;2022-07-12T10:45:32;3.42;;;2.92;;
49910;SDS011;35803;53.096;5.844;2022-07-12T10:48:00;3.25;;;2.88;;
49910;SDS011;35803;53.096;5.844;2022-07-12T10:58:35;2.33;;;2.13;;
49910;SDS011;35803;53.096;5.844;2022-07-12T11:01:02;2.83;;;1.90;;
49910;SDS011;35803;53.096;5.844;2022-07-12T11:06:08;2.80;;;2.30;;
49910;SDS011;35803;53.096;5.844;2022-07-12T11:11:14;2.10;;;1.90;;
49910;SDS011;35803;53.096;5.844;2022-07-12T11:13:39;2.40;;;2.17;;
49910;SDS011;35803;53.096;5.844;2022-07-12T11:16:08;3.22;;;2.28;;
49910;SDS011;35803;53.096;5.844;2022-07-12T11:18:35;2.42;;;1.85;;
49910;SDS011;35803;53.096;5.844;2022-07-12T11:21:01;2.72;;;2.30;;
49910;SDS011;35803;53.096;5.844;2022-07-12T11:23:28;2.20;;;1.80;;
49910;SDS011;35803;53.096;5.844;2022-07-12T11:25:54;2.38;;;1.80;;
49910;SDS011;35803;53.096;5.844;2022-07-12T11:28:21;2.28;;;1.70;;
49910;SDS011;35803;53.096;5.844;2022-07-12T11:30:49;2.42;;;1.50;;
49910;SDS011;35803;53.096;5.844;2022-07-12T11:33:15;1.52;;;1.42;;
49910;SDS011;35803;53.096;5.844;2022-07-12T11:35:43;1.48;;;1.08;;
49910;SDS011;35803;53.096;5.844;2022-07-12T11:38:10;2.10;;;1.70;;
49910;SDS011;35803;53.096;5.844;2022-07-12T11:40:35;1.65;;;1.55;;
49910;SDS011;35803;53.096;5.844;2022-07-12T11:43:02;1.83;;;1.40;;
49910;SDS011;35803;53.096;5.844;2022-07-12T11:45:32;1.50;;;1.40;;
49910;SDS011;35803;53.096;5.844;2022-07-12T11:47:59;2.28;;;1.85;;
49910;SDS011;35803;53.096;5.844;2022-07-12T11:50:26;1.55;;;1.30;;
49910;SDS011;35803;53.096;5.844;2022-07-12T11:52:54;3.28;;;1.67;;
49910;SDS011;35803;53.096;5.844;2022-07-12T11:55:20;2.00;;;1.20;;
49910;SDS011;35803;53.096;5.844;2022-07-12T11:57:45;2.10;;;1.80;;
49910;SDS011;35803;53.096;5.844;2022-07-12T12:02:43;1.42;;;1.33;;
49910;SDS011;35803;53.096;5.844;2022-07-12T12:05:09;1.55;;;1.45;;
49910;SDS011;35803;53.096;5.844;2022-07-12T12:07:36;1.70;;;1.60;;
49910;SDS011;35803;53.096;5.844;2022-07-12T12:12:35;1.30;;;1.20;;
49910;SDS011;35803;53.096;5.844;2022-07-12T12:17:32;1.48;;;1.30;;
49910;SDS011;35803;53.096;5.844;2022-07-12T12:20:08;1.30;;;1.20;;
49910;SDS011;35803;53.096;5.844;2022-07-12T12:25:09;1.92;;;1.52;;
49910;SDS011;35803;53.096;5.844;2022-07-12T12:30:11;1.73;;;1.20;;
49910;SDS011;35803;53.096;5.844;2022-07-12T12:32:47;2.00;;;1.40;;
49910;SDS011;35803;53.096;5.844;2022-07-12T12:35:13;2.25;;;1.63;;
49910;SDS011;35803;53.096;5.844;2022-07-12T12:37:41;2.08;;;1.50;;
49910;SDS011;35803;53.096;5.844;2022-07-12T12:40:17;2.58;;;1.98;;
49910;SDS011;35803;53.096;5.844;2022-07-12T12:42:47;2.30;;;1.70;;
49910;SDS011;35803;53.096;5.844;2022-07-12T12:45:20;2.08;;;1.80;;
49910;SDS011;35803;53.096;5.844;2022-07-12T12:47:53;1.55;;;1.40;;
49910;SDS011;35803;53.096;5.844;2022-07-12T12:50:39;2.17;;;1.63;;
49910;SDS011;35803;53.096;5.844;2022-07-12T12:53:16;2.65;;;1.50;;
49910;SDS011;35803;53.096;5.844;2022-07-12T12:55:43;1.70;;;1.50;;
49910;SDS011;35803;53.096;5.844;2022-07-12T12:58:10;1.63;;;1.52;;
49910;SDS011;35803;53.096;5.844;2022-07-12T13:00:37;2.70;;;1.75;;
49910;SDS011;35803;53.096;5.844;2022-07-12T13:03:04;2.45;;;1.90;;
49910;SDS011;35803;53.096;5.844;2022-07-12T13:05:31;2.10;;;1.90;;
49910;SDS011;35803;53.096;5.844;2022-07-12T13:07:57;1.88;;;1.60;;
49910;SDS011;35803;53.096;5.844;2022-07-12T13:10:23;3.35;;;1.83;;
49910;SDS011;35803;53.096;5.844;2022-07-12T13:12:49;1.88;;;1.60;;
49910;SDS011;35803;53.096;5.844;2022-07-12T13:15:16;1.83;;;1.40;;
49910;SDS011;35803;53.096;5.844;2022-07-12T13:17:41;1.35;;;1.25;;
49910;SDS011;35803;53.096;5.844;2022-07-12T13:20:07;1.60;;;1.50;;
49910;SDS011;35803;53.096;5.844;2022-07-12T13:22:33;4.10;;;2.05;;
49910;SDS011;35803;53.096;5.844;2022-07-12T13:24:59;4.25;;;1.52;;
49910;SDS011;35803;53.096;5.844;2022-07-12T13:27:24;1.67;;;1.58;;
49910;SDS011;35803;53.096;5.844;2022-07-12T13:29:52;1.70;;;1.60;;
49910;SDS011;35803;53.096;5.844;2022-07-12T13:32:18;2.38;;;1.55;;
49910;SDS011;35803;53.096;5.844;2022-07-12T13:34:43;1.80;;;1.60;;
49910;SDS011;35803;53.096;5.844;2022-07-12T13:37:12;1.52;;;1.27;;
49910;SDS011;35803;53.096;5.844;2022-07-12T13:39:38;1.40;;;1.30;;
49910;SDS011;35803;53.096;5.844;2022-07-12T13:42:22;2.08;;;1.60;;
49910;SDS011;35803;53.096;5.844;2022-07-12T13:44:47;1.27;;;1.17;;
49910;SDS011;35803;53.096;5.844;2022-07-12T13:47:12;1.67;;;1.42;;
49910;SDS011;35803;53.096;5.844;2022-07-12T13:49:39;1.38;;;1.27;;
49910;SDS011;35803;53.096;5.844;2022-07-12T13:52:04;1.30;;;1.20;;
49910;SDS011;35803;53.096;5.844;2022-07-12T13:54:30;1.83;;;1.50;;
49910;SDS011;35803;53.096;5.844;2022-07-12T13:56:56;1.77;;;1.33;;
49910;SDS011;35803;53.096;5.844;2022-07-12T13:59:21;2.78;;;1.52;;
49910;SDS011;35803;53.096;5.844;2022-07-12T14:01:47;1.45;;;1.20;;
49910;SDS011;35803;53.096;5.844;2022-07-12T14:04:12;2.35;;;1.58;;
49910;SDS011;35803;53.096;5.844;2022-07-12T14:06:38;1.98;;;1.33;;
49910;SDS011;35803;53.096;5.844;2022-07-12T14:09:03;2.60;;;2.15;;
49910;SDS011;35803;53.096;5.844;2022-07-12T14:11:29;3.10;;;2.40;;
49910;SDS011;35803;53.096;5.844;2022-07-12T14:13:54;2.70;;;2.30;;
49910;SDS011;35803;53.096;5.844;2022-07-12T14:16:21;2.47;;;1.90;;
49910;SDS011;35803;53.096;5.844;2022-07-12T14:18:46;2.38;;;2.17;;
49910;SDS011;35803;53.096;5.844;2022-07-12T14:21:12;2.25;;;2.05;;
49910;SDS011;35803;53.096;5.844;2022-07-12T14:23:38;3.08;;;2.35;;
49910;SDS011;35803;53.096;5.844;2022-07-12T14:26:04;3.05;;;2.22;;
49910;SDS011;35803;53.096;5.844;2022-07-12T14:28:30;3.53;;;2.88;;
49910;SDS011;35803;53.096;5.844;2022-07-12T14:30:56;2.80;;;2.53;;
49910;SDS011;35803;53.096;5.844;2022-07-12T14:33:21;3.38;;;3.05;;
49910;SDS011;35803;53.096;5.844;2022-07-12T14:35:47;3.80;;;3.40;;
49910;SDS011;35803;53.096;5.844;2022-07-12T14:38:12;9.40;;;4.00;;
49910;SDS011;35803;53.096;5.844;2022-07-12T14:40:38;3.60;;;2.80;;
49910;SDS011;35803;53.096;5.844;2022-07-12T14:43:04;3.50;;;2.90;;
49910;SDS011;35803;53.096;5.844;2022-07-12T14:45:30;4.38;;;2.63;;
49910;SDS011;35803;53.096;5.844;2022-07-12T14:47:55;3.40;;;2.58;;
49910;SDS011;35803;53.096;5.844;2022-07-12T14:50:20;4.43;;;2.80;;
49910;SDS011;35803;53.096;5.844;2022-07-12T14:52:46;3.53;;;2.85;;
49910;SDS011;35803;53.096;5.844;2022-07-12T14:55:12;2.88;;;2.40;;
49910;SDS011;35803;53.096;5.844;2022-07-12T14:57:37;3.58;;;3.00;;
49910;SDS011;35803;53.096;5.844;2022-07-12T15:00:05;3.75;;;3.30;;
49910;SDS011;35803;53.096;5.844;2022-07-12T15:02:33;3.33;;;2.63;;
49910;SDS011;35803;53.096;5.844;2022-07-12T15:04:59;2.88;;;2.45;;
49910;SDS011;35803;53.096;5.844;2022-07-12T15:07:28;4.03;;;3.20;;
49910;SDS011;35803;53.096;5.844;2022-07-12T15:09:55;3.15;;;2.85;;
49910;SDS011;35803;53.096;5.844;2022-07-12T15:12:21;3.60;;;3.10;;
49910;SDS011;35803;53.096;5.844;2022-07-12T15:14:46;3.63;;;3.13;;
49910;SDS011;35803;53.096;5.844;2022-07-12T15:17:12;3.22;;;2.90;;
49910;SDS011;35803;53.096;5.844;2022-07-12T15:19:40;3.20;;;2.80;;
49910;SDS011;35803;53.096;5.844;2022-07-12T15:22:06;5.25;;;2.65;;
49910;SDS011;35803;53.096;5.844;2022-07-12T15:24:32;5.05;;;2.42;;
49910;SDS011;35803;53.096;5.844;2022-07-12T15:26:58;2.88;;;2.63;;
49910;SDS011;35803;53.096;5.844;2022-07-12T15:29:23;2.92;;;2.03;;
49910;SDS011;35803;53.096;5.844;2022-07-12T15:31:49;2.33;;;2.13;;
49910;SDS011;35803;53.096;5.844;2022-07-12T15:34:16;2.30;;;2.10;;
49910;SDS011;35803;53.096;5.844;2022-07-12T15:36:42;2.25;;;1.85;;